Terminal Aerodrome Forecast
Issued by NWS Wilmington, NC

Home | Current Version | Previous Version | Text Only | Print | Product List | Glossary On
Versions: 1 2 3 4 5 6 7 8 9 10 11 12 13 14
920
FTUS42 KILM 281725
TAFFLO
TAF
KFLO 281725Z 2818/2918 18010KT P6SM VCSH SCT040 SCT090
     FM282000 17011KT P6SM VCTS BKN050CB BKN100
      TEMPO 2822/2902 VRB07G27KT 3SM TSRA BKN035CB
     FM290200 16004KT P6SM VCSH SCT040 BKN110
     FM291500 20009KT P6SM FEW050=

USA.gov is the U.S. government's official web portal to all federal, state and local government web resources and services.